createdAt,value
2022-12-22T00:01:52.994Z,4.67
2022-12-22T00:04:38.252Z,4.00
2022-12-22T00:07:23.475Z,4.40
2022-12-22T00:10:08.470Z,4.17
2022-12-22T00:12:54.405Z,4.17
2022-12-22T00:15:39.784Z,4.30
2022-12-22T00:18:30.291Z,3.80
2022-12-22T00:21:15.080Z,4.70
2022-12-22T00:23:59.939Z,19.67
2022-12-22T00:26:46.687Z,12.27
2022-12-22T00:29:34.107Z,4.90
2022-12-22T00:32:20.912Z,3.80
2022-12-22T00:35:06.296Z,4.20
2022-12-22T00:37:53.638Z,4.00
2022-12-22T00:40:41.451Z,3.40
2022-12-22T00:43:26.548Z,3.90
2022-12-22T00:46:12.320Z,3.50
2022-12-22T00:49:00.207Z,3.67
2022-12-22T00:51:45.519Z,3.67
2022-12-22T00:54:32.810Z,3.60
2022-12-22T00:57:19.097Z,3.50
2022-12-22T01:00:05.699Z,3.30
2022-12-22T01:02:50.628Z,3.50
2022-12-22T01:05:35.680Z,4.40
2022-12-22T01:08:21.025Z,3.10
2022-12-22T01:11:06.336Z,3.97
2022-12-22T01:13:51.642Z,3.50
2022-12-22T01:16:36.671Z,3.20
2022-12-22T01:19:21.915Z,3.67
2022-12-22T01:22:06.993Z,3.27
2022-12-22T01:24:51.714Z,3.73
2022-12-22T01:27:36.551Z,3.47
2022-12-22T01:30:21.937Z,3.60
2022-12-22T01:33:06.940Z,3.23
2022-12-22T01:35:53.828Z,3.20
2022-12-22T01:38:38.667Z,3.30
2022-12-22T01:41:28.428Z,3.20
2022-12-22T01:44:13.307Z,2.77
2022-12-22T01:47:03.772Z,2.80
2022-12-22T01:50:00.980Z,3.00
2022-12-22T01:52:51.354Z,3.13
2022-12-22T01:55:41.276Z,3.00
2022-12-22T01:58:41.283Z,2.97
2022-12-22T02:01:26.120Z,2.90
2022-12-22T02:04:11.243Z,2.93
2022-12-22T02:07:01.612Z,2.67
2022-12-22T02:09:55.801Z,2.77
2022-12-22T02:12:59.124Z,2.33
2022-12-22T02:15:49.626Z,2.87
2022-12-22T02:18:47.798Z,2.60
2022-12-22T02:21:39.134Z,2.57
2022-12-22T02:24:42.849Z,2.50
2022-12-22T02:27:29.630Z,2.40
2022-12-22T02:30:19.440Z,2.60
2022-12-22T02:33:09.886Z,2.53
2022-12-22T02:36:32.544Z,2.73
2022-12-22T02:39:30.882Z,2.70
2022-12-22T02:42:44.072Z,2.70
2022-12-22T02:45:46.829Z,2.50
2022-12-22T02:48:44.869Z,2.57
2022-12-22T02:51:36.777Z,2.50
2022-12-22T02:54:23.692Z,2.90
2022-12-22T02:57:08.467Z,2.97
2022-12-22T02:59:53.331Z,2.30
2022-12-22T03:02:38.861Z,2.00
2022-12-22T03:05:24.540Z,2.10
2022-12-22T03:08:09.451Z,1.87
2022-12-22T03:10:54.716Z,2.00
2022-12-22T03:13:39.591Z,1.90
2022-12-22T03:16:24.329Z,1.70
2022-12-22T03:19:09.368Z,1.80
2022-12-22T03:21:54.040Z,1.73
2022-12-22T03:24:38.889Z,1.63
2022-12-22T03:27:05.312Z,1.93
2022-12-22T03:29:31.742Z,1.70
2022-12-22T03:31:58.241Z,1.80
2022-12-22T03:34:24.814Z,1.70
2022-12-22T03:36:51.275Z,1.40
2022-12-22T03:39:17.677Z,1.43
2022-12-22T03:42:02.761Z,1.50
2022-12-22T03:44:47.450Z,1.70
2022-12-22T03:47:13.954Z,1.70
2022-12-22T03:49:40.439Z,1.60
2022-12-22T03:52:06.858Z,1.50
2022-12-22T03:54:33.309Z,1.80
2022-12-22T03:56:59.818Z,1.50
2022-12-22T03:59:26.257Z,2.00
2022-12-22T04:01:54.397Z,1.73
2022-12-22T04:04:24.655Z,1.80
2022-12-22T04:06:51.615Z,1.93
2022-12-22T04:09:18.112Z,1.90
2022-12-22T04:12:02.977Z,2.53
2022-12-22T04:14:33.742Z,2.50
2022-12-22T04:17:01.942Z,1.73
2022-12-22T04:19:28.373Z,1.83
2022-12-22T04:21:54.888Z,2.10
2022-12-22T04:24:22.332Z,2.03
2022-12-22T04:26:49.680Z,2.03
2022-12-22T04:29:16.173Z,2.23
2022-12-22T04:31:42.676Z,1.93
2022-12-22T04:34:09.206Z,1.63
2022-12-22T04:36:35.637Z,2.07
2022-12-22T04:39:02.144Z,1.73
2022-12-22T04:41:28.573Z,1.83
2022-12-22T04:43:55.031Z,1.90
2022-12-22T04:46:21.625Z,1.50
2022-12-22T04:48:48.130Z,1.80
2022-12-22T04:51:14.579Z,1.70
2022-12-22T04:53:41.001Z,2.00
2022-12-22T04:56:08.481Z,1.90
2022-12-22T04:58:35.224Z,1.90
2022-12-22T05:01:10.245Z,2.23
2022-12-22T05:03:36.878Z,2.53
2022-12-22T05:06:03.547Z,2.70
2022-12-22T05:08:29.997Z,2.50
2022-12-22T05:10:56.471Z,2.23
2022-12-22T05:13:22.928Z,2.10
2022-12-22T05:15:49.372Z,3.00
2022-12-22T05:18:15.765Z,2.53
2022-12-22T05:20:42.228Z,3.07
2022-12-22T05:23:08.705Z,3.20
2022-12-22T05:25:35.762Z,3.50
2022-12-22T05:28:02.714Z,4.30
2022-12-22T05:30:29.178Z,9.43
2022-12-22T05:32:55.628Z,10.50
2022-12-22T05:35:22.071Z,12.33
2022-12-22T05:37:48.641Z,12.83
2022-12-22T05:40:15.350Z,13.53
2022-12-22T05:42:41.805Z,14.70
2022-12-22T05:45:08.392Z,13.70
2022-12-22T05:47:35.163Z,10.70
2022-12-22T05:50:01.985Z,9.37
2022-12-22T05:52:28.555Z,12.87
2022-12-22T05:54:55.035Z,11.20
2022-12-22T05:57:21.775Z,8.87
2022-12-22T05:59:48.264Z,7.63
2022-12-22T06:02:14.920Z,10.07
2022-12-22T06:04:41.533Z,11.33
2022-12-22T06:07:08.046Z,7.20
2022-12-22T06:09:34.621Z,6.63
2022-12-22T06:12:01.092Z,4.10
2022-12-22T06:14:27.559Z,5.30
2022-12-22T06:16:54.127Z,4.00
2022-12-22T06:19:20.582Z,4.97
2022-12-22T06:21:46.986Z,5.37
2022-12-22T06:24:13.395Z,7.07
2022-12-22T06:26:39.997Z,7.77
2022-12-22T06:29:06.508Z,6.00
2022-12-22T06:31:33.007Z,6.80
2022-12-22T06:33:59.520Z,6.23
2022-12-22T06:36:25.990Z,8.57
2022-12-22T06:38:52.530Z,11.40
2022-12-22T06:41:38.943Z,10.63
2022-12-22T06:44:05.460Z,11.40
2022-12-22T06:46:32.093Z,12.97
2022-12-22T06:48:58.629Z,12.50
2022-12-22T06:51:25.185Z,12.50
2022-12-22T06:53:51.624Z,11.80
2022-12-22T06:56:18.030Z,11.07
2022-12-22T06:58:44.467Z,11.70
2022-12-22T07:01:11.023Z,10.40
2022-12-22T07:03:37.521Z,10.27
2022-12-22T07:06:04.201Z,9.63
2022-12-22T07:08:30.676Z,10.33
2022-12-22T07:11:00.147Z,10.27
2022-12-22T07:13:34.026Z,10.13
2022-12-22T07:16:05.859Z,10.03
2022-12-22T07:18:34.858Z,9.23
2022-12-22T07:21:03.542Z,10.33
2022-12-22T07:23:30.247Z,10.43
2022-12-22T07:25:56.926Z,10.00
2022-12-22T07:28:24.142Z,9.90
2022-12-22T07:30:51.564Z,11.13
2022-12-22T07:33:18.372Z,9.50
2022-12-22T07:35:45.171Z,10.57
2022-12-22T07:38:11.759Z,9.80
2022-12-22T07:40:42.114Z,9.50
2022-12-22T07:43:09.513Z,9.47
2022-12-22T07:45:36.370Z,10.40
2022-12-22T07:48:23.248Z,9.63
2022-12-22T07:50:49.707Z,9.73
2022-12-22T07:53:16.118Z,9.30
2022-12-22T07:55:42.582Z,9.03
2022-12-22T07:58:09.050Z,10.10
2022-12-22T08:00:35.501Z,9.50
2022-12-22T08:03:02.754Z,9.37
2022-12-22T08:05:29.319Z,8.97
2022-12-22T08:07:55.778Z,9.03
2022-12-22T08:10:22.182Z,10.83
2022-12-22T08:12:48.649Z,9.63
2022-12-22T08:15:15.314Z,12.53
2022-12-22T08:17:41.990Z,11.53
2022-12-22T08:20:08.902Z,11.07
2022-12-22T08:22:35.436Z,13.30
2022-12-22T08:25:01.901Z,12.20
2022-12-22T08:27:43.328Z,12.70
2022-12-22T08:30:10.916Z,12.00
2022-12-22T08:32:38.583Z,12.97
2022-12-22T08:35:06.477Z,14.93
2022-12-22T08:37:41.073Z,14.90
2022-12-22T08:40:14.615Z,17.33
2022-12-22T08:42:41.890Z,19.07
2022-12-22T08:45:11.141Z,18.93
2022-12-22T08:47:37.636Z,19.90
2022-12-22T08:50:05.406Z,20.87
2022-12-22T08:52:31.997Z,21.57
2022-12-22T08:54:58.461Z,21.80
2022-12-22T08:57:24.908Z,23.73
2022-12-22T08:59:51.428Z,22.53
2022-12-22T09:02:17.903Z,26.23
2022-12-22T09:04:44.473Z,24.90
2022-12-22T09:07:11.490Z,23.77
2022-12-22T09:09:38.030Z,24.20
2022-12-22T09:12:04.731Z,21.47
2022-12-22T09:14:32.340Z,23.00
2022-12-22T09:16:58.958Z,22.23
2022-12-22T09:19:25.548Z,21.67
2022-12-22T09:21:51.970Z,23.23
2022-12-22T09:24:19.221Z,23.00
2022-12-22T09:26:45.718Z,24.27
2022-12-22T09:29:15.287Z,23.50
2022-12-22T09:31:42.002Z,22.00
2022-12-22T09:34:11.967Z,21.50
2022-12-22T09:36:43.524Z,19.83
2022-12-22T09:39:10.856Z,19.97
2022-12-22T09:41:41.351Z,19.20
2022-12-22T09:44:19.384Z,19.30
2022-12-22T09:46:46.008Z,15.70
2022-12-22T09:49:15.791Z,17.53
2022-12-22T09:51:46.348Z,16.17
2022-12-22T09:54:13.998Z,16.23
2022-12-22T09:56:40.886Z,15.33
2022-12-22T09:59:18.055Z,14.40
2022-12-22T10:02:13.819Z,15.63
2022-12-22T10:05:01.995Z,16.67
2022-12-22T10:07:38.464Z,16.90
2022-12-22T10:10:06.297Z,17.37
2022-12-22T10:12:32.781Z,16.50
2022-12-22T10:14:59.184Z,16.47
2022-12-22T10:17:33.797Z,17.97
2022-12-22T10:20:19.132Z,15.87
2022-12-22T10:22:49.747Z,18.63
2022-12-22T10:28:59.253Z,16.17
2022-12-22T10:31:31.187Z,16.50
2022-12-22T10:34:11.869Z,17.80
2022-12-22T10:36:38.882Z,19.00
2022-12-22T10:39:19.165Z,16.33
2022-12-22T10:41:49.141Z,17.50
2022-12-22T10:44:15.551Z,19.30
2022-12-22T10:46:57.773Z,20.00
2022-12-22T10:49:28.739Z,18.97
2022-12-22T10:52:10.177Z,18.63
2022-12-22T10:54:36.874Z,19.20
2022-12-22T10:57:24.919Z,19.43
2022-12-22T10:59:55.919Z,20.03
2022-12-22T11:02:28.640Z,20.00
2022-12-22T11:05:02.313Z,20.30
2022-12-22T11:07:32.065Z,19.60
2022-12-22T11:09:58.545Z,19.83
2022-12-22T11:12:40.248Z,19.90
2022-12-22T11:15:31.519Z,20.20
2022-12-22T11:18:15.293Z,22.37
2022-12-22T11:21:09.713Z,22.43
2022-12-22T11:23:54.013Z,21.20
2022-12-22T11:26:31.030Z,22.03
2022-12-22T11:29:29.784Z,19.70
2022-12-22T11:32:26.915Z,20.97
2022-12-22T11:35:06.282Z,20.57
2022-12-22T11:37:54.208Z,20.20
2022-12-22T11:40:33.086Z,19.07
2022-12-22T11:43:24.028Z,19.20
2022-12-22T11:46:13.831Z,17.40
2022-12-22T11:48:40.327Z,18.43
2022-12-22T11:51:42.206Z,18.63
2022-12-22T11:54:23.723Z,18.33
2022-12-22T11:57:39.704Z,19.17
2022-12-22T12:00:10.163Z,18.10
2022-12-22T12:02:48.676Z,17.57
2022-12-22T12:05:40.527Z,16.83
2022-12-22T12:08:22.221Z,16.87
2022-12-22T12:11:18.478Z,15.83
2022-12-22T12:13:53.701Z,16.77
2022-12-22T12:16:25.904Z,15.80
2022-12-22T12:18:59.421Z,16.30
2022-12-22T12:21:36.252Z,16.20
2022-12-22T12:24:11.871Z,16.20
2022-12-22T12:27:27.008Z,15.80
2022-12-22T12:33:17.089Z,15.77
2022-12-22T12:36:02.555Z,16.87
2022-12-22T12:39:09.162Z,17.30
2022-12-22T12:41:57.611Z,18.87
2022-12-22T12:44:28.263Z,19.10
2022-12-22T12:47:02.275Z,19.43
2022-12-22T12:49:34.844Z,20.20
2022-12-22T12:52:53.402Z,19.20
2022-12-22T12:55:32.558Z,18.57
2022-12-22T12:58:03.278Z,18.50
2022-12-22T13:00:32.997Z,17.77
2022-12-22T13:03:05.146Z,15.40
2022-12-22T13:05:33.322Z,16.17
2022-12-22T13:08:29.797Z,13.60
2022-12-22T13:10:56.132Z,14.50
2022-12-22T13:13:25.523Z,13.00
2022-12-22T13:16:01.801Z,12.37
2022-12-22T13:18:34.675Z,13.40
2022-12-22T13:21:50.873Z,13.33
2022-12-22T13:24:22.775Z,13.40
2022-12-22T13:26:43.369Z,13.07
2022-12-22T13:29:26.813Z,12.20
2022-12-22T13:32:15.749Z,12.37
2022-12-22T13:35:28.948Z,11.80
2022-12-22T13:37:42.919Z,12.00
2022-12-22T13:40:17.642Z,11.40
2022-12-22T13:43:05.305Z,12.03
2022-12-22T13:45:36.913Z,10.93
2022-12-22T13:48:09.627Z,11.43
2022-12-22T13:50:42.370Z,10.80
2022-12-22T13:53:41.562Z,12.10
2022-12-22T13:56:01.656Z,12.13
2022-12-22T13:58:32.645Z,10.70
2022-12-22T14:01:11.372Z,12.97
2022-12-22T14:03:59.363Z,12.80
2022-12-22T14:06:33.525Z,12.40
2022-12-22T14:09:15.434Z,11.30
2022-12-22T14:11:51.257Z,12.30
2022-12-22T14:14:22.760Z,12.90
2022-12-22T14:16:51.931Z,11.70
2022-12-22T14:19:19.907Z,11.63
2022-12-22T14:21:55.120Z,12.13
2022-12-22T14:24:28.677Z,12.10
2022-12-22T14:26:57.735Z,13.10
2022-12-22T14:29:28.651Z,11.67
2022-12-22T14:31:57.431Z,11.13
2022-12-22T14:34:29.851Z,11.77
2022-12-22T14:37:00.647Z,12.33
2022-12-22T14:39:32.331Z,12.73
2022-12-22T14:42:01.762Z,12.20
2022-12-22T14:44:37.570Z,11.43
2022-12-22T14:47:16.003Z,11.70
2022-12-22T14:49:57.258Z,11.20
2022-12-22T14:52:35.846Z,11.57
2022-12-22T14:55:04.296Z,12.10
2022-12-22T14:57:36.942Z,10.03
2022-12-22T15:00:27.504Z,10.40
2022-12-22T15:03:04.200Z,9.83
2022-12-22T15:05:36.151Z,9.70
2022-12-22T15:08:06.858Z,8.93
2022-12-22T15:10:38.674Z,8.43
2022-12-22T15:13:07.275Z,8.10
2022-12-22T15:15:34.399Z,7.13
2022-12-22T15:18:00.920Z,7.87
2022-12-22T15:20:33.677Z,7.50
2022-12-22T15:23:11.725Z,8.60
2022-12-22T15:25:38.177Z,9.23
2022-12-22T15:28:04.804Z,9.00
2022-12-22T15:30:31.358Z,8.20
2022-12-22T15:32:57.943Z,7.73
2022-12-22T15:35:32.741Z,9.30
2022-12-22T15:38:00.321Z,9.00
2022-12-22T15:40:28.250Z,9.60
2022-12-22T15:42:55.207Z,10.20
2022-12-22T15:45:22.502Z,10.40
2022-12-22T15:47:52.032Z,11.30
2022-12-22T15:50:38.801Z,11.40
2022-12-22T15:53:11.007Z,11.70
2022-12-22T15:55:46.027Z,11.53
2022-12-22T15:58:16.419Z,11.20
2022-12-22T16:00:42.833Z,11.70
2022-12-22T16:03:10.674Z,12.07
2022-12-22T16:05:38.402Z,11.77
2022-12-22T16:08:14.456Z,11.23
2022-12-22T16:10:44.430Z,9.77
2022-12-22T16:13:13.597Z,10.30
2022-12-22T16:15:40.411Z,10.10
2022-12-22T16:18:07.613Z,9.17
2022-12-22T16:20:41.039Z,8.87
2022-12-22T16:23:14.681Z,10.43
2022-12-22T16:25:44.381Z,10.57
2022-12-22T16:28:20.918Z,11.00
2022-12-22T16:30:48.147Z,9.60
2022-12-22T16:33:15.629Z,9.10
2022-12-22T16:35:42.221Z,9.30
2022-12-22T16:38:13.000Z,10.07
2022-12-22T16:40:46.125Z,8.30
2022-12-22T16:43:51.316Z,8.33
2022-12-22T16:46:20.705Z,8.33
2022-12-22T16:48:55.851Z,9.10
2022-12-22T16:51:28.134Z,8.63
2022-12-22T16:53:54.782Z,10.30
2022-12-22T16:56:24.840Z,9.80
2022-12-22T16:58:51.403Z,10.93
2022-12-22T17:01:38.717Z,11.13
2022-12-22T17:04:17.174Z,11.90
2022-12-22T17:06:43.691Z,11.23
2022-12-22T17:09:17.503Z,11.30
2022-12-22T17:11:46.191Z,11.97
2022-12-22T17:14:36.885Z,11.60
2022-12-22T17:17:03.929Z,13.20
2022-12-22T17:19:30.507Z,13.77
2022-12-22T17:21:58.847Z,14.70
2022-12-22T17:24:28.658Z,13.30
2022-12-22T17:27:01.117Z,14.77
2022-12-22T17:29:27.986Z,15.30
2022-12-22T17:31:56.481Z,14.60
2022-12-22T17:34:23.725Z,15.87
2022-12-22T17:36:50.741Z,14.57
2022-12-22T17:39:21.208Z,14.17
2022-12-22T17:41:54.388Z,15.50
2022-12-22T17:44:25.845Z,18.40
2022-12-22T17:46:52.505Z,15.43
2022-12-22T17:49:21.928Z,14.90
2022-12-22T17:51:48.775Z,13.80
2022-12-22T17:54:27.237Z,25.10
2022-12-22T17:56:58.838Z,15.80
2022-12-22T17:59:25.342Z,14.43
2022-12-22T18:01:51.925Z,14.70
2022-12-22T18:04:18.554Z,15.10
2022-12-22T18:06:45.322Z,12.70
2022-12-22T18:09:20.887Z,14.53
2022-12-22T18:11:48.337Z,15.30
2022-12-22T18:14:15.829Z,12.80
2022-12-22T18:16:43.848Z,13.20
2022-12-22T18:19:10.431Z,12.90
2022-12-22T18:21:37.277Z,12.80
2022-12-22T18:24:04.227Z,13.10
2022-12-22T18:26:31.653Z,12.83
2022-12-22T18:28:58.488Z,11.27
2022-12-22T18:31:25.523Z,11.70
2022-12-22T18:33:52.259Z,12.30
2022-12-22T18:36:23.016Z,13.93
2022-12-22T18:38:50.076Z,10.63
2022-12-22T18:41:24.981Z,10.10
2022-12-22T18:43:51.493Z,10.93
2022-12-22T18:46:18.725Z,10.00
2022-12-22T18:48:45.350Z,10.80
2022-12-22T18:51:24.185Z,9.90
2022-12-22T18:53:52.582Z,10.50
2022-12-22T18:56:19.397Z,9.17
2022-12-22T18:58:46.538Z,9.90
2022-12-22T19:01:17.985Z,8.90
2022-12-22T19:03:45.628Z,11.73
2022-12-22T19:06:12.309Z,8.47
2022-12-22T19:08:45.156Z,8.10
2022-12-22T19:11:13.078Z,7.97
2022-12-22T19:13:44.094Z,7.33
2022-12-22T19:16:17.343Z,7.87
2022-12-22T19:18:44.323Z,6.60
2022-12-22T19:21:15.711Z,7.23
2022-12-22T19:23:42.328Z,8.27
2022-12-22T19:26:25.034Z,6.93
2022-12-22T19:29:00.580Z,6.40
2022-12-22T19:31:33.470Z,5.47
2022-12-22T19:34:04.301Z,6.70
2022-12-22T19:36:31.921Z,6.10
2022-12-22T19:39:04.782Z,5.60
2022-12-22T19:41:46.038Z,5.80
2022-12-22T19:44:18.891Z,6.90
2022-12-22T19:46:46.551Z,5.37
2022-12-22T19:49:31.172Z,5.60
2022-12-22T19:51:58.494Z,5.13
2022-12-22T19:54:25.319Z,5.43
2022-12-22T19:56:55.149Z,4.90
2022-12-22T19:59:33.946Z,5.30
2022-12-22T20:02:22.301Z,5.57
2022-12-22T20:04:49.539Z,4.67
2022-12-22T20:07:17.148Z,5.20
2022-12-22T20:09:43.636Z,6.50
2022-12-22T20:12:26.326Z,7.30
2022-12-22T20:14:53.250Z,6.40
2022-12-22T20:17:20.560Z,4.73
2022-12-22T20:19:47.040Z,5.40
2022-12-22T20:22:17.824Z,5.57
2022-12-22T20:24:46.195Z,5.20
2022-12-22T20:27:20.240Z,4.77
2022-12-22T20:29:46.671Z,4.87
2022-12-22T20:32:14.733Z,4.83
2022-12-22T20:34:42.097Z,5.90
2022-12-22T20:37:18.890Z,4.80
2022-12-22T20:39:45.687Z,5.47
2022-12-22T20:42:20.246Z,4.83
2022-12-22T20:45:01.519Z,5.83
2022-12-22T20:47:30.098Z,5.70
2022-12-22T20:49:56.615Z,5.20
2022-12-22T20:52:23.044Z,6.50
2022-12-22T20:54:49.605Z,5.17
2022-12-22T20:57:16.861Z,5.47
2022-12-22T20:59:44.364Z,5.33
2022-12-22T21:02:29.375Z,4.60
2022-12-22T21:04:56.550Z,5.27
2022-12-22T21:07:22.973Z,4.87
2022-12-22T21:09:49.443Z,5.27
2022-12-22T21:12:15.905Z,5.10
2022-12-22T21:14:42.379Z,5.60
2022-12-22T21:17:19.276Z,7.30
2022-12-22T21:19:46.230Z,4.90
2022-12-22T21:22:12.742Z,5.00
2022-12-22T21:24:40.082Z,6.17
2022-12-22T21:27:06.608Z,4.70
2022-12-22T21:29:33.125Z,5.50
2022-12-22T21:31:59.583Z,5.47
2022-12-22T21:34:26.045Z,6.10
2022-12-22T21:37:01.430Z,5.67
2022-12-22T21:39:32.435Z,5.33
2022-12-22T21:42:03.067Z,5.93
2022-12-22T21:44:31.777Z,5.37
2022-12-22T21:46:59.006Z,6.50
2022-12-22T21:49:28.333Z,6.03
2022-12-22T21:51:55.714Z,6.30
2022-12-22T21:54:24.399Z,6.80
2022-12-22T21:56:52.268Z,5.67
2022-12-22T21:59:19.180Z,5.57
2022-12-22T22:01:46.551Z,5.80
2022-12-22T22:04:13.677Z,4.90
2022-12-22T22:06:40.437Z,4.90
2022-12-22T22:09:07.303Z,5.67
2022-12-22T22:11:54.252Z,4.20
2022-12-22T22:14:21.059Z,4.53
2022-12-22T22:16:47.740Z,5.80
2022-12-22T22:19:14.135Z,4.93
2022-12-22T22:21:40.539Z,5.27
2022-12-22T22:24:07.210Z,4.90
2022-12-22T22:26:33.606Z,5.17
2022-12-22T22:29:00.016Z,5.23
2022-12-22T22:31:26.540Z,4.43
2022-12-22T22:33:53.026Z,5.20
2022-12-22T22:36:19.461Z,4.60
2022-12-22T22:38:49.483Z,5.37
2022-12-22T22:41:15.925Z,4.83
2022-12-22T22:43:42.403Z,5.77
2022-12-22T22:46:08.993Z,5.43
2022-12-22T22:48:35.427Z,6.10
2022-12-22T22:51:01.849Z,5.50
2022-12-22T22:53:28.394Z,5.40
2022-12-22T22:55:54.918Z,5.00
2022-12-22T22:58:21.394Z,5.03
2022-12-22T23:00:47.803Z,5.33
2022-12-22T23:03:14.253Z,5.23
2022-12-22T23:05:40.795Z,6.60
2022-12-22T23:08:07.263Z,5.40
2022-12-22T23:10:39.400Z,5.40
2022-12-22T23:13:07.996Z,5.80
2022-12-22T23:15:34.506Z,5.77
2022-12-22T23:18:01.038Z,6.13
2022-12-22T23:20:28.467Z,5.97
2022-12-22T23:22:54.909Z,5.50
2022-12-22T23:25:21.313Z,6.63
2022-12-22T23:27:47.736Z,6.73
2022-12-22T23:30:14.487Z,6.50
2022-12-22T23:32:40.923Z,5.97
2022-12-22T23:35:07.683Z,6.60
2022-12-22T23:37:34.068Z,7.53
2022-12-22T23:40:24.993Z,6.00
2022-12-22T23:42:50.467Z,5.70
2022-12-22T23:45:19.678Z,6.13
2022-12-22T23:47:46.640Z,5.23
2022-12-22T23:50:13.190Z,5.40
2022-12-22T23:52:42.681Z,5.70
2022-12-22T23:55:13.841Z,5.13
2022-12-22T23:57:40.754Z,5.90
